KLGA/LGA METAR and TAF weather

Enter ICAO airport designator
Station Type Date Time Source
KLGA METAR 2022/01/27 23:51 UTC NOAA

KLGA 272351Z 20010KT 10SM FEW035 FEW250 00/M10 A3028 RMK AO2 SLP252 T00001100 10000 21017 56009


Station Type Date Time Source
KLGA Decoded METAR 2022/01/27 23:51 UTC NOAA

NEW YORK LA GUARDIA AIRPORT , NY, United States (KLGA) 40-47N 73-53W 11M
Jan 27, 2022 - 06:51 PM EST / 2022.01.27 2351 UTC
Wind: from the SSW (200 degrees) at 12 MPH (10 KT):0
Visibility: 10 mile(s):0
Sky conditions: mostly clear
Temperature: 32.0 F (0.0 C)
Windchill: 23 F (-5 C):1
Dew Point: 14.0 F (-10.0 C)
Relative Humidity: 46%
Pressure (altimeter): 30.28 in. Hg (1025 hPa)
Pressure tendency: 0.03 inches (0.9 hPa) lower than three hours ago
ob: KLGA 272351Z 20010KT 10SM FEW035 FEW250 00/M10 A3028 RMK AO2 SLP252 T00001100 10000 21017 56009
cycle: 0

Station Type Date Time Source
KLGA TAF 2022/01/27 21:39 UTC NOAA

TAF
AMD KLGA 272036Z 2721/2824 19011KT P6SM SCT035
FM280300 22008KT P6SM BKN100
FM280900 25004KT P6SM SCT050 OVC070
FM281500 27006KT P6SM BKN040
FM281800 27006KT P6SM BKN025
FM282100 35007KT P6SM BKN020 PROB30 2821/2824 5SM -SN OVC015

Example: see airport list